Craig Municipal Airport
KCRG : rendu visible

Aérodrome :











RETROUVEZ-NOUS SUR...

 
LOGIN :

S'inscrire | Disclaimer

   EN    FR    IT 

 









Légende :    VFR   VFR Marginal   IFR   IFR Intensif   IFR Très Intensif
Visi : 
Plafond : 
>= 8 km
>= 3000ft
5 à 8 km
1000 à 3000 ft
1500m à 5 km
500 à 1000 ft
800 à 1500m
200 à 500 ft
< 800m
< 200 ft
Symboles :   Orages  Brouillard  Fortes neiges  Fortes précipitations  Vent > 20 kt







- Altitude de l'aérodrome : 41 ft


KCRG - Craig Municipal

DERNIER METAR :
  • 240453Z AUTO 15003KT 10SM CLR 22/19 A3018 RMK AO2 SLP218 T02220189 402890217

METARs EXPIRÉS :
  • 240353Z AUTO 07003KT 10SM FEW028 23/19 A3019 RMK AO2 SLP223 T02280194
  • 240253Z AUTO 11003KT 10SM CLR 23/19 A3019 RMK AO2 SLP223 T02330194 53002

TAF KCRG
Valide du 24 à 00h jusqu'au 25 à 00h UTC


232327Z 2400/2424 12008KT P6SM FEW029
FM240200 09004KT P6SM FEW025
FM240600 00000KT P6SM SKC
FM241400 12005KT P6SM SCT030
FIR KZJX / Amérique du Nord



MET'MAP, la Météo Aéronautique d'un coup d'oeil ! - Copyright ORBIFLY Décembre 2007 - Disclaimer

ORBIFLY MET'MAP TEAM :

Programmation & Développement : Alexandra Zaïnal
Conception & Développement : Baudouin d'Aumeries
Co-Programmation & Développement : Marc-Olivier Méhu
Soutien technique & logistique : Manuel Goepfert

Contact : metmap@orbifly.com




SOURCES & CREDITS :

   NOAA       Earth
Advisory